Time;durP1;ratioP1;P1;durP2;ratioP2;P2;SDS_P1;SDS_P2;PMS_P1;PMS_P2;Temp;Humidity;BMP_temperature;BMP_pressure;BME280_temperature;BME280_humidity;BME280_pressure;Samples;Min_cycle;Max_cycle;Signal;HPM_P1;HPM_P2
2023/12/15 00:00:48;;;;;;;9.60;7.30;;;3.20;89.30;;;2.43;92.09;98870.59;4996540;28;21098;-78
2023/12/15 00:03:15;;;;;;;10.43;7.47;;;3.20;88.80;;;2.52;92.00;98879.56;5008341;28;20510;-78
2023/12/15 00:05:45;;;;;;;9.47;7.03;;;3.20;89.40;;;2.55;92.38;98877.47;5017239;28;20472;-77
2023/12/15 00:08:12;;;;;;;12.87;8.57;;;3.30;89.80;;;2.66;91.13;98881.78;5001350;28;20453;-75
2023/12/15 00:10:40;;;;;;;11.30;7.70;;;3.40;88.90;;;2.67;90.22;98872.78;5015055;28;20545;-77
2023/12/15 00:13:08;;;;;;;11.57;7.70;;;3.40;88.20;;;2.46;90.64;98880.97;5013344;28;20471;-77
2023/12/15 00:15:35;;;;;;;10.17;7.90;;;3.30;88.00;;;2.29;92.51;98890.53;5011802;28;20448;-76
2023/12/15 00:18:02;;;;;;;10.63;8.50;;;3.20;88.20;;;2.21;93.04;98893.06;5017779;28;20598;-76
2023/12/15 00:20:30;;;;;;;12.50;8.63;;;3.00;88.90;;;2.30;93.18;98891.38;5013444;28;20505;-76
2023/12/15 00:22:59;;;;;;;12.77;8.60;;;3.10;89.70;;;2.21;93.26;98890.38;5015699;28;20507;-77
2023/12/15 00:25:26;;;;;;;12.73;8.33;;;3.00;89.50;;;1.79;93.44;98825.69;5011057;28;20492;-77
2023/12/15 00:27:54;;;;;;;12.97;8.40;;;2.90;90.00;;;2.15;93.81;98906.97;5007322;28;20571;-77
2023/12/15 00:30:21;;;;;;;12.30;7.30;;;2.80;90.50;;;2.10;94.30;98910.88;5009213;28;20507;-77
2023/12/15 00:32:48;;;;;;;10.40;7.23;;;2.80;90.30;;;2.04;94.74;98910.56;5013817;28;20459;-79
2023/12/15 00:35:16;;;;;;;12.50;8.73;;;2.80;90.80;;;1.97;95.63;98895.16;5024682;28;20459;-79
2023/12/15 00:37:43;;;;;;;13.03;8.67;;;2.80;91.40;;;2.10;95.22;98912.72;5011147;28;20459;-78
2023/12/15 00:40:13;;;;;;;12.00;9.37;;;2.90;91.70;;;2.05;95.49;98921.13;5012758;28;20481;-77
2023/12/15 00:42:41;;;;;;;13.60;9.30;;;2.90;91.50;;;2.16;95.93;98929.97;4993074;28;20549;-76
2023/12/15 00:45:09;;;;;;;14.07;9.10;;;2.90;91.60;;;2.10;95.86;98940.19;5008596;28;20448;-77
2023/12/15 00:47:36;;;;;;;11.67;7.80;;;3.00;91.30;;;2.02;95.36;98933.88;5011648;28;20463;-79
2023/12/15 00:50:06;;;;;;;10.30;8.80;;;3.00;91.10;;;2.16;95.00;98946.78;5016002;28;20460;-77
2023/12/15 00:52:33;;;;;;;12.80;8.70;;;3.00;91.00;;;2.06;95.15;98965.44;4996131;28;20479;-76
2023/12/15 00:55:00;;;;;;;12.33;8.80;;;3.00;90.70;;;1.98;96.02;98958.13;5023467;28;20514;-79
2023/12/15 00:57:29;;;;;;;11.53;8.20;;;2.90;91.00;;;1.92;95.35;98976.50;5024997;28;20553;-78
2023/12/15 00:59:57;;;;;;;11.90;8.07;;;2.90;90.70;;;1.86;95.54;98975.22;5000142;28;20477;-78
2023/12/15 01:02:24;;;;;;;13.13;8.70;;;2.90;90.50;;;1.97;95.21;98977.78;5012846;28;20470;-78
2023/12/15 01:04:52;;;;;;;11.90;8.97;;;2.90;90.90;;;2.06;94.37;98984.13;5016389;28;20541;-78
2023/12/15 01:07:19;;;;;;;13.40;9.30;;;2.90;90.80;;;2.02;94.73;98984.53;5011271;28;20991;-78
2023/12/15 01:09:46;;;;;;;14.90;9.70;;;2.90;90.40;;;2.01;94.54;98993.50;5012880;28;20486;-78
2023/12/15 01:12:14;;;;;;;11.93;8.97;;;2.90;90.60;;;2.03;95.16;98980.88;5009020;28;20864;-77
2023/12/15 01:14:43;;;;;;;15.37;9.73;;;2.90;90.60;;;2.05;95.00;98993.09;5023540;28;20449;-76
2023/12/15 01:17:11;;;;;;;13.87;10.00;;;2.90;90.60;;;2.14;95.54;98999.44;5021545;28;20452;-78
2023/12/15 01:19:38;;;;;;;14.50;10.13;;;2.90;91.00;;;1.95;94.20;98987.75;5006858;28;20491;-78
2023/12/15 01:22:05;;;;;;;16.20;9.90;;;3.00;90.70;;;1.89;95.38;99020.25;5000963;28;20507;-78
2023/12/15 01:24:33;;;;;;;14.20;9.50;;;2.80;90.60;;;1.86;95.64;99009.88;5017627;28;20476;-78
2023/12/15 01:27:00;;;;;;;17.63;8.73;;;2.80;90.80;;;1.94;95.54;99022.50;5025572;28;20456;-78
2023/12/15 01:29:30;;;;;;;13.63;9.40;;;2.80;91.00;;;1.97;94.53;99025.75;5017355;28;20485;-78
2023/12/15 01:31:59;;;;;;;11.53;7.80;;;2.80;90.90;;;1.82;94.83;99035.09;5022570;28;20445;-78
2023/12/15 01:34:26;;;;;;;12.10;9.47;;;2.70;90.30;;;1.92;93.58;99022.66;5026646;28;20470;-76
2023/12/15 01:36:54;;;;;;;14.57;8.93;;;2.80;90.30;;;1.84;93.50;99033.16;5021741;28;20970;-77
2023/12/15 01:39:21;;;;;;;10.93;8.30;;;2.70;89.60;;;1.37;93.53;98965.22;5025503;28;20507;-78
2023/12/15 01:41:49;;;;;;;13.67;9.37;;;2.70;89.80;;;1.86;92.51;99047.19;5024788;28;20894;-77
2023/12/15 01:44:16;;;;;;;11.97;9.30;;;2.70;89.00;;;1.77;92.71;99040.00;5022631;28;20453;-77
2023/12/15 01:46:44;;;;;;;12.07;7.90;;;2.60;88.70;;;1.77;91.87;99058.66;5021803;28;20525;-78
2023/12/15 01:49:14;;;;;;;13.93;8.20;;;2.60;88.50;;;1.51;92.81;99061.75;5023952;28;20447;-78
2023/12/15 01:51:41;;;;;;;10.50;6.57;;;2.50;88.00;;;1.49;93.52;99063.69;5002453;28;20449;-77
2023/12/15 01:54:09;;;;;;;11.53;7.50;;;2.40;88.30;;;1.65;93.20;99080.06;5024314;28;20447;-77
2023/12/15 01:56:37;;;;;;;13.33;8.53;;;2.40;89.30;;;1.38;93.00;99054.81;5005036;28;20472;-76
2023/12/15 01:59:04;;;;;;;9.13;6.70;;;2.40;89.10;;;1.37;93.84;99069.09;5019593;28;20462;-77
2023/12/15 02:01:32;;;;;;;14.63;8.80;;;2.30;89.60;;;1.42;94.12;99079.38;5000948;28;20480;-77
2023/12/15 02:03:59;;;;;;;13.13;7.40;;;2.30;90.00;;;1.22;94.42;99078.38;5017130;28;20459;-77
2023/12/15 02:06:28;;;;;;;10.37;8.27;;;2.10;89.80;;;1.01;95.00;99063.25;5019448;28;20479;-78
2023/12/15 02:08:55;;;;;;;15.80;9.37;;;2.00;90.50;;;0.96;96.12;99073.41;5005874;28;20475;-78
2023/12/15 02:11:22;;;;;;;10.63;7.33;;;1.90;90.50;;;0.87;96.53;99082.19;5022389;28;20465;-79
2023/12/15 02:13:50;;;;;;;13.20;8.93;;;1.80;90.80;;;0.75;97.29;99074.22;5011190;28;20626;-77
2023/12/15 02:16:18;;;;;;;12.27;7.60;;;1.70;91.40;;;0.54;98.66;99048.44;5015431;28;20468;-78
2023/12/15 02:18:47;;;;;;;14.70;8.73;;;1.60;91.80;;;0.55;98.86;99071.41;5018467;28;20472;-77
2023/12/15 02:21:15;;;;;;;13.87;7.97;;;1.50;92.30;;;0.48;99.61;99070.19;5017797;28;20519;-78
2023/12/15 02:23:44;;;;;;;12.10;8.13;;;1.50;92.60;;;0.51;98.96;99091.22;5017858;28;20502;-77
2023/12/15 02:26:12;;;;;;;12.97;8.57;;;1.40;92.90;;;0.50;98.98;99094.84;5017233;28;20463;-77
2023/12/15 02:28:39;;;;;;;14.20;8.60;;;1.40;93.00;;;0.45;98.99;99102.38;5001763;28;20459;-76
2023/12/15 02:31:07;;;;;;;15.90;9.90;;;1.30;93.10;;;0.37;99.68;99088.84;5000008;28;20471;-75
2023/12/15 02:33:34;;;;;;;14.73;8.37;;;1.40;93.30;;;0.40;99.55;99112.53;5012354;28;20455;-77
2023/12/15 02:36:01;;;;;;;14.00;8.87;;;1.30;93.40;;;0.37;99.80;99108.31;5002177;28;20819;-75
2023/12/15 02:38:29;;;;;;;14.70;9.10;;;1.30;93.60;;;0.27;100.00;99110.84;5025632;28;20450;-75
2023/12/15 02:40:58;;;;;;;13.77;9.07;;;1.20;93.60;;;0.28;100.00;99112.53;5011538;28;20474;-78
2023/12/15 02:43:25;;;;;;;15.03;9.33;;;1.20;93.80;;;0.28;99.91;99114.34;5028138;28;20473;-77
2023/12/15 02:45:53;;;;;;;11.97;8.50;;;1.20;94.00;;;0.01;100.00;99077.53;5014113;28;20836;-79
2023/12/15 02:48:20;;;;;;;15.70;9.00;;;1.10;94.20;;;-0.37;100.00;99032.63;5014032;28;20450;-75
2023/12/15 02:50:48;;;;;;;14.27;8.83;;;1.10;94.30;;;0.18;100.00;99122.22;5018362;28;20451;-75
2023/12/15 02:53:16;;;;;;;15.90;10.07;;;1.10;94.60;;;0.22;100.00;99123.66;5011857;28;20465;-77
2023/12/15 02:55:44;;;;;;;15.67;9.93;;;1.10;94.80;;;0.16;100.00;99124.16;4996558;28;20488;-78
2023/12/15 02:58:13;;;;;;;13.50;9.33;;;1.10;94.70;;;0.26;100.00;99126.91;5017231;28;20510;-77
2023/12/15 03:00:40;;;;;;;14.30;8.23;;;1.00;95.30;;;0.21;100.00;99129.94;5019581;28;20555;-78
2023/12/15 03:03:07;;;;;;;15.97;9.60;;;1.00;95.30;;;0.16;100.00;99140.09;5017429;28;20470;-79
2023/12/15 03:05:36;;;;;;;16.10;10.10;;;1.00;95.30;;;0.09;100.00;99149.53;5014151;28;20486;-74
2023/12/15 03:08:03;;;;;;;16.90;9.40;;;0.90;95.10;;;-0.16;100.00;99117.72;5004032;28;20486;-78
2023/12/15 03:10:30;;;;;;;15.23;10.23;;;0.90;95.30;;;-0.46;100.00;99075.81;5016384;28;20487;-78
2023/12/15 03:12:58;;;;;;;13.53;8.73;;;0.90;95.70;;;0.06;100.00;99160.38;5013584;28;20891;-78
2023/12/15 03:15:27;;;;;;;19.23;10.07;;;1.00;95.80;;;0.09;100.00;99168.97;5006916;28;20582;-76
2023/12/15 03:17:55;;;;;;;14.37;9.33;;;1.00;95.70;;;0.10;100.00;99169.84;5018643;28;20456;-76
2023/12/15 03:20:22;;;;;;;13.97;9.00;;;0.90;95.50;;;0.16;99.50;99177.31;5021857;28;20481;-77
2023/12/15 03:22:49;;;;;;;15.30;9.20;;;1.00;95.70;;;0.03;99.79;99179.22;5017580;28;20470;-79
2023/12/15 03:25:18;;;;;;;16.17;9.17;;;0.90;94.90;;;-0.04;100.00;99177.06;5010987;28;20475;-78
2023/12/15 03:27:45;;;;;;;19.07;9.37;;;0.90;94.70;;;0.07;99.56;99170.91;5035703;28;20464;-79
2023/12/15 03:30:13;;;;;;;13.90;7.73;;;0.90;94.90;;;0.00;99.74;99180.34;5009351;28;20502;-77
2023/12/15 03:32:42;;;;;;;11.47;7.97;;;0.90;94.70;;;-0.04;99.59;99185.03;5024237;28;21062;-76
2023/12/15 03:35:10;;;;;;;13.97;8.63;;;0.80;94.20;;;-0.05;99.69;99182.50;5017321;28;20519;-78
2023/12/15 03:37:37;;;;;;;13.90;8.33;;;0.80;94.30;;;-0.25;98.22;99131.75;5028971;28;20458;-76
2023/12/15 03:40:08;;;;;;;11.87;7.90;;;0.90;94.50;;;-0.08;99.10;99180.06;5025036;28;20698;-77
2023/12/15 03:42:35;;;;;;;15.87;9.03;;;0.80;94.00;;;-0.17;99.22;99173.66;5022918;28;20478;-78
2023/12/15 03:45:03;;;;;;;13.63;8.07;;;0.80;93.70;;;0.00;99.43;99177.69;5008700;28;20455;-79
2023/12/15 03:47:30;;;;;;;12.67;8.20;;;0.80;94.20;;;0.02;98.77;99190.81;5026899;28;20540;-78
2023/12/15 03:49:59;;;;;;;11.53;8.00;;;0.80;93.70;;;-0.06;98.91;99199.41;5010227;28;20456;-78
2023/12/15 03:52:27;;;;;;;14.37;8.87;;;0.80;93.40;;;-0.15;98.97;99192.97;5021425;28;20458;-77
2023/12/15 03:54:54;;;;;;;15.20;8.27;;;0.70;93.60;;;-0.11;98.51;99191.78;5024382;28;20450;-77
2023/12/15 03:57:22;;;;;;;11.37;8.43;;;0.70;94.10;;;-0.15;99.15;99206.25;5018123;28;20572;-77
2023/12/15 03:59:49;;;;;;;14.77;9.07;;;0.70;93.60;;;-0.25;100.00;99207.91;5020079;28;20972;-76
2023/12/15 04:02:16;;;;;;;13.80;7.90;;;0.70;93.50;;;-0.53;100.00;99186.09;5022834;28;20493;-77
2023/12/15 04:04:44;;;;;;;15.93;9.13;;;0.60;93.70;;;-0.32;99.83;99213.72;5005109;28;20542;-79
2023/12/15 04:07:13;;;;;;;14.20;9.13;;;0.50;94.20;;;-0.26;99.43;99214.19;5019079;28;20929;-78
2023/12/15 04:09:41;;;;;;;13.63;8.40;;;0.50;94.70;;;-0.26;99.78;99222.16;5002211;28;21168;-77
2023/12/15 04:12:08;;;;;;;13.23;8.60;;;0.50;94.80;;;-0.23;98.86;99213.97;5017821;28;20455;-75
2023/12/15 04:14:36;;;;;;;16.07;9.00;;;0.50;95.00;;;-0.43;100.00;99229.59;5017158;28;20544;-74
2023/12/15 04:17:03;;;;;;;15.80;9.20;;;0.40;94.50;;;-0.52;100.00;99230.31;5014515;28;20448;-77
2023/12/15 04:19:32;;;;;;;16.53;10.20;;;0.40;94.60;;;-0.48;100.00;99240.56;5006315;28;20479;-81
2023/12/15 04:21:59;;;;;;;15.20;9.90;;;0.40;95.20;;;-0.49;100.00;99246.84;5029848;28;20563;-77
2023/12/15 04:24:29;;;;;;;15.80;10.07;;;0.40;95.60;;;-0.48;100.00;99248.53;5020719;28;21325;-78
2023/12/15 04:26:56;;;;;;;14.70;9.20;;;0.40;96.10;;;-0.36;100.00;99257.41;5026330;28;20473;-77
2023/12/15 04:29:23;;;;;;;16.73;10.37;;;0.50;96.90;;;-0.22;100.00;99253.69;5027638;28;20458;-78
2023/12/15 04:31:51;;;;;;;15.70;9.50;;;0.60;97.50;;;-0.09;100.00;99268.72;5003182;28;20465;-78
2023/12/15 04:34:18;;;;;;;15.00;9.73;;;0.70;98.20;;;0.06;100.00;99277.31;5004266;28;20444;-75
2023/12/15 04:36:46;;;;;;;17.57;10.80;;;0.90;98.60;;;-0.11;100.00;99197.09;4985047;28;20469;-79
2023/12/15 04:39:13;;;;;;;14.33;10.00;;;1.00;99.80;;;0.37;100.00;99267.84;5023736;28;20463;-77
2023/12/15 04:41:43;;;;;;;14.80;10.17;;;1.10;99.20;;;0.43;100.00;99263.88;5012970;28;20489;-80
2023/12/15 04:44:10;;;;;;;15.37;9.90;;;1.20;98.40;;;0.59;100.00;99270.63;5014808;28;21178;-79
2023/12/15 04:46:37;;;;;;;16.97;11.03;;;1.30;98.30;;;0.69;100.00;99285.75;5009543;28;20461;-78
2023/12/15 04:49:06;;;;;;;19.83;11.00;;;1.40;98.20;;;0.81;100.00;99283.09;5016545;28;20570;-78
2023/12/15 04:51:33;;;;;;;18.47;10.23;;;1.50;98.00;;;0.76;99.48;99254.19;4995638;28;20449;-79
2023/12/15 04:54:01;;;;;;;16.23;11.00;;;1.50;97.80;;;1.04;97.85;99277.72;4998495;28;20459;-76
2023/12/15 04:56:29;;;;;;;22.57;11.70;;;1.80;96.80;;;1.18;97.74;99285.47;5020797;28;20965;-79
2023/12/15 04:58:57;;;;;;;19.47;11.53;;;1.80;95.60;;;1.11;97.67;99285.09;5000812;28;20448;-76
2023/12/15 05:01:25;;;;;;;16.37;10.37;;;1.90;94.40;;;1.40;96.45;99279.22;5016769;28;20486;-77
2023/12/15 05:03:52;;;;;;;13.63;9.93;;;2.00;94.10;;;1.30;97.09;99282.78;5019906;28;20458;-76
2023/12/15 05:06:21;;;;;;;16.20;10.90;;;2.00;93.00;;;1.39;96.38;99282.88;5014568;28;20573;-74
2023/12/15 05:08:51;;;;;;;16.50;10.17;;;2.10;93.00;;;1.38;96.31;99286.50;5019151;28;20499;-79
2023/12/15 05:11:19;;;;;;;15.70;10.00;;;2.10;92.70;;;1.23;96.26;99282.44;5021841;28;21236;-80
2023/12/15 05:13:48;;;;;;;17.23;10.47;;;2.00;92.40;;;1.44;95.28;99286.97;5018123;28;20550;-79
2023/12/15 05:16:16;;;;;;;15.33;10.93;;;2.10;92.20;;;1.59;93.89;99288.38;5022796;28;20591;-79
2023/12/15 05:18:44;;;;;;;15.80;10.50;;;2.20;91.70;;;1.60;93.94;99294.56;5027394;28;20997;-80
2023/12/15 05:21:12;;;;;;;15.53;10.70;;;2.30;91.10;;;1.57;94.44;99298.31;5024319;28;20521;-80
2023/12/15 05:23:41;;;;;;;14.93;9.97;;;2.30;91.10;;;1.52;94.63;99303.19;5014819;28;20587;-79
2023/12/15 05:26:08;;;;;;;14.67;10.07;;;2.20;91.10;;;1.53;94.92;99300.41;5002736;28;20461;-81
2023/12/15 05:28:36;;;;;;;21.87;11.80;;;2.20;91.40;;;1.68;94.91;99308.09;5025632;28;20948;-79
2023/12/15 05:31:03;;;;;;;14.87;10.10;;;2.30;91.70;;;1.65;95.21;99314.53;5017484;28;21032;-78
2023/12/15 05:33:32;;;;;;;18.27;10.73;;;2.30;91.60;;;1.82;94.13;99320.28;5019195;28;20476;-80
2023/12/15 05:36:00;;;;;;;14.47;10.30;;;2.40;91.60;;;1.77;94.31;99318.00;5004531;28;20458;-79
2023/12/15 05:38:27;;;;;;;16.50;11.07;;;2.50;91.30;;;1.80;94.24;99327.56;5028593;28;20469;-79
2023/12/15 05:40:55;;;;;;;17.80;11.13;;;2.50;91.10;;;1.83;93.93;99328.16;5026615;28;20939;-81
2023/12/15 05:43:22;;;;;;;13.70;10.13;;;2.50;91.00;;;1.90;93.17;99324.97;5023328;28;20464;-80
2023/12/15 05:45:50;;;;;;;13.60;9.73;;;2.60;91.00;;;2.04;93.17;99331.81;5012890;28;20585;-80
2023/12/15 05:48:17;;;;;;;16.23;10.80;;;2.70;90.90;;;1.97;93.02;99332.31;5027663;28;20487;-78
2023/12/15 05:50:47;;;;;;;14.07;9.80;;;2.70;90.70;;;2.11;93.58;99346.31;5026112;28;20543;-76
2023/12/15 05:53:14;;;;;;;15.47;10.83;;;2.70;91.00;;;2.12;92.89;99350.69;5024324;28;20463;-78
2023/12/15 05:55:41;;;;;;;15.57;9.27;;;2.80;91.00;;;2.89;98.09;99361.13;5010936;28;20858;-75
2023/12/15 05:58:09;;;;;;;15.83;10.17;;;3.20;94.30;;;2.50;94.31;99292.41;5009637;28;20487;-75
2023/12/15 06:00:36;;;;;;;16.17;10.00;;;3.70;94.50;;;3.69;98.75;99359.44;5026204;28;20455;-79
2023/12/15 06:03:04;;;;;;;15.40;10.43;;;4.10;96.70;;;3.60;91.74;99362.94;5019341;28;20468;-76
2023/12/15 06:05:34;;;;;;;17.67;9.73;;;4.30;92.50;;;3.58;91.96;99377.41;4996269;28;20548;-78
2023/12/15 06:08:03;;;;;;;17.07;11.10;;;4.20;91.30;;;3.36;89.65;99309.88;4999813;28;20465;-80
2023/12/15 06:10:30;;;;;;;15.53;10.33;;;4.40;90.20;;;3.40;85.66;99343.34;5016500;28;20444;-78
2023/12/15 06:12:57;;;;;;;12.97;9.93;;;4.40;87.00;;;3.65;87.50;99384.75;5014822;28;20877;-74
2023/12/15 06:15:24;;;;;;;18.03;11.37;;;4.50;87.60;;;3.00;85.99;99385.09;5021616;28;20468;-72
2023/12/15 06:17:51;;;;;;;16.20;10.83;;;4.00;84.30;;;2.76;85.70;99391.56;5008101;28;20460;-73
2023/12/15 06:20:20;;;;;;;14.90;10.77;;;3.60;83.70;;;2.77;85.20;99395.09;5015530;28;20469;-73
2023/12/15 06:22:47;;;;;;;16.10;10.60;;;3.60;84.10;;;2.79;85.62;99404.63;5002786;28;20866;-76
2023/12/15 06:25:16;;;;;;;15.57;11.10;;;3.50;84.00;;;2.75;85.76;99413.06;5006587;28;20522;-74
2023/12/15 06:27:44;;;;;;;17.57;10.93;;;3.40;84.20;;;2.68;86.48;99410.06;5004772;28;20804;-72
2023/12/15 06:30:13;;;;;;;15.57;10.97;;;3.40;84.30;;;2.46;86.40;99408.38;4997255;28;20467;-74
2023/12/15 06:32:40;;;;;;;17.33;11.20;;;3.30;84.20;;;2.51;86.37;99420.34;5016427;28;20457;-72
2023/12/15 06:35:09;;;;;;;18.33;11.20;;;3.30;84.50;;;2.36;87.16;99400.28;4997944;28;20519;-68
2023/12/15 06:37:37;;;;;;;16.83;10.63;;;3.10;84.50;;;2.52;86.83;99399.84;5002824;28;20449;-68
2023/12/15 06:40:07;;;;;;;15.83;11.57;;;3.30;84.70;;;2.40;87.93;99405.22;5006497;28;20468;-69
2023/12/15 06:42:36;;;;;;;20.13;11.07;;;3.20;84.60;;;2.68;87.13;99413.56;5017724;28;20487;-69
2023/12/15 06:45:07;;;;;;;18.63;11.07;;;3.30;85.10;;;2.75;86.71;99413.88;4996354;28;20452;-68
2023/12/15 06:47:38;;;;;;;22.43;11.50;;;3.30;85.00;;;2.72;86.50;99408.81;4995839;28;20470;-70
2023/12/15 06:50:07;;;;;;;15.50;10.83;;;3.40;84.90;;;2.68;87.43;99407.41;5016733;28;20539;-68
2023/12/15 06:52:35;;;;;;;20.70;11.73;;;3.40;85.00;;;2.60;87.24;99410.72;5003181;28;20464;-69
2023/12/15 06:55:07;;;;;;;21.50;11.57;;;3.40;84.60;;;2.91;87.43;99420.59;5016710;28;20659;-68
2023/12/15 06:57:36;;;;;;;19.10;12.50;;;3.50;85.30;;;2.80;85.23;99427.69;5000855;28;20468;-69
2023/12/15 07:00:09;;;;;;;17.30;11.70;;;3.50;84.30;;;2.81;84.93;99434.75;5019272;28;20461;-65
2023/12/15 07:02:37;;;;;;;17.30;11.30;;;3.50;83.90;;;2.73;84.30;99429.19;5016876;28;20514;-68
2023/12/15 07:05:09;;;;;;;17.27;11.27;;;3.50;83.20;;;2.86;85.04;99447.66;5020526;28;20461;-72
2023/12/15 07:07:37;;;;;;;17.90;11.90;;;3.60;83.50;;;2.89;84.60;99435.91;5000288;28;20485;-69
2023/12/15 07:10:06;;;;;;;15.93;11.00;;;3.60;83.20;;;2.86;84.38;99428.16;5015581;28;20521;-71
2023/12/15 07:12:35;;;;;;;16.77;9.83;;;3.60;83.50;;;2.86;84.48;99441.50;4987708;28;20484;-70
2023/12/15 07:15:04;;;;;;;18.47;12.00;;;3.60;83.40;;;3.08;84.21;99457.38;5015080;28;20479;-71
2023/12/15 07:17:31;;;;;;;19.37;11.37;;;3.70;83.40;;;2.96;85.10;99461.94;5013860;28;20552;-71
2023/12/15 07:19:58;;;;;;;23.70;13.13;;;3.70;83.60;;;3.17;84.01;99460.22;4997621;28;20453;-83
2023/12/15 07:22:28;;;;;;;19.67;12.70;;;3.80;83.70;;;3.02;84.34;99462.38;4995070;28;20857;-71
2023/12/15 07:24:55;;;;;;;18.63;11.90;;;3.70;83.30;;;3.03;84.42;99464.94;5015993;28;21154;-71
2023/12/15 07:27:23;;;;;;;19.00;12.53;;;3.80;83.70;;;2.80;83.66;99448.22;5002753;28;20559;-73
2023/12/15 07:29:52;;;;;;;13.83;10.73;;;3.80;83.20;;;3.19;84.30;99490.31;5014293;28;21035;-72
2023/12/15 07:32:19;;;;;;;17.97;11.27;;;3.80;83.40;;;2.84;84.72;99481.66;5015694;28;20506;-71
2023/12/15 07:34:47;;;;;;;18.43;11.83;;;3.70;83.20;;;3.13;84.74;99491.69;5012724;28;20460;-71
2023/12/15 07:37:14;;;;;;;17.60;11.20;;;3.70;83.70;;;3.26;83.76;99503.03;5013795;28;20460;-72
2023/12/15 07:39:42;;;;;;;17.33;10.47;;;3.80;83.30;;;3.11;84.21;99496.31;5001520;28;20464;-72
2023/12/15 07:42:12;;;;;;;15.77;10.57;;;3.80;83.00;;;3.17;84.37;99497.63;5015530;28;20476;-73
2023/12/15 07:44:40;;;;;;;20.90;11.10;;;3.80;83.30;;;2.98;83.45;99461.81;5020334;28;20567;-72
2023/12/15 07:47:09;;;;;;;18.00;11.60;;;3.80;83.00;;;3.20;82.98;99486.69;5015091;28;20528;-71
2023/12/15 07:49:36;;;;;;;15.50;10.10;;;3.90;82.70;;;3.18;83.76;99502.81;5018603;28;20471;-74
2023/12/15 07:52:04;;;;;;;17.67;11.07;;;3.90;82.80;;;3.28;83.64;99505.56;5017248;28;20460;-75
2023/12/15 07:54:31;;;;;;;16.17;10.87;;;3.90;82.70;;;3.07;83.74;99508.25;5020017;28;20576;-74
2023/12/15 07:56:58;;;;;;;21.37;10.50;;;3.90;82.50;;;3.27;83.88;99511.91;5019758;28;21377;-74
2023/12/15 07:59:27;;;;;;;18.10;11.60;;;3.90;82.70;;;3.11;84.39;99515.03;5003194;28;20501;-74
2023/12/15 08:01:55;;;;;;;19.63;10.73;;;3.90;82.80;;;2.80;85.25;99518.44;5020021;28;20971;-76
2023/12/15 08:04:24;;;;;;;18.80;12.03;;;3.70;82.90;;;2.79;86.08;99505.25;5000977;28;20463;-73
2023/12/15 08:06:52;;;;;;;16.57;11.20;;;3.70;83.30;;;3.18;84.44;99531.38;5017722;28;20479;-74
2023/12/15 08:09:19;;;;;;;17.87;11.93;;;3.80;83.10;;;3.32;83.89;99525.69;4995024;28;20565;-73
2023/12/15 08:11:47;;;;;;;16.87;10.67;;;4.00;83.20;;;3.40;83.69;99536.56;5018665;28;20472;-72
2023/12/15 08:14:14;;;;;;;18.00;11.60;;;4.10;83.00;;;3.53;82.76;99535.50;4999315;28;20456;-73
2023/12/15 08:16:41;;;;;;;20.87;12.73;;;4.10;82.70;;;3.08;82.79;99484.06;5001056;28;20448;-73
2023/12/15 08:19:09;;;;;;;17.80;10.73;;;4.20;82.80;;;3.56;82.79;99550.44;5020728;28;20456;-74
2023/12/15 08:21:41;;;;;;;20.00;12.77;;;4.20;82.80;;;3.39;83.85;99544.72;5020721;28;20461;-72
2023/12/15 08:24:08;;;;;;;17.60;11.23;;;4.20;82.80;;;3.59;83.89;99556.38;5006980;28;20455;-72
2023/12/15 08:26:36;;;;;;;16.20;11.17;;;4.20;83.10;;;3.79;82.25;99553.78;5004681;28;20454;-73
2023/12/15 08:29:04;;;;;;;21.93;11.83;;;4.40;82.90;;;3.77;82.70;99555.75;5006710;28;20522;-73
2023/12/15 08:31:31;;;;;;;20.30;12.43;;;4.40;82.60;;;3.97;82.38;99559.34;5009875;28;20461;-72
2023/12/15 08:33:58;;;;;;;19.43;11.73;;;4.50;82.90;;;3.88;82.63;99552.13;5024208;28;20448;-72
2023/12/15 08:36:25;;;;;;;18.43;11.87;;;4.50;82.60;;;3.76;83.23;99564.75;5007370;28;20516;-74
2023/12/15 08:38:55;;;;;;;20.50;11.90;;;4.50;83.00;;;3.94;82.28;99560.47;5009411;28;20450;-73
2023/12/15 08:41:22;;;;;;;21.03;12.90;;;4.50;82.90;;;3.92;83.42;99557.09;5022831;28;20461;-74
2023/12/15 08:43:50;;;;;;;18.47;11.80;;;4.60;83.00;;;3.89;83.42;99557.34;5006204;28;22093;-72
2023/12/15 08:46:17;;;;;;;22.50;13.37;;;4.50;83.10;;;4.02;82.67;99561.59;5003555;28;20465;-74
2023/12/15 08:48:45;;;;;;;21.40;12.37;;;4.60;82.90;;;3.95;82.77;99535.41;5003858;28;20548;-73
2023/12/15 08:51:13;;;;;;;19.47;12.27;;;4.80;82.90;;;4.30;81.69;99559.16;5023207;28;20908;-73
2023/12/15 08:53:41;;;;;;;21.40;12.53;;;4.90;82.60;;;4.32;80.97;99559.88;5022086;28;20487;-73
2023/12/15 08:56:09;;;;;;;23.70;13.63;;;4.90;82.40;;;4.51;80.01;99567.09;5022554;28;20457;-73
2023/12/15 08:58:37;;;;;;;19.97;13.50;;;5.10;82.30;;;4.66;80.45;99565.72;5022963;28;20450;-73
2023/12/15 09:01:05;;;;;;;19.13;12.97;;;5.20;82.20;;;4.64;80.13;99569.53;5023825;28;20469;-72
2023/12/15 09:03:34;;;;;;;20.63;13.10;;;5.30;81.80;;;4.53;80.54;99573.16;5016516;28;21191;-74
2023/12/15 09:06:01;;;;;;;19.37;12.73;;;5.20;81.60;;;4.63;80.31;99578.53;5007961;28;20496;-74
2023/12/15 09:08:28;;;;;;;20.77;13.37;;;5.30;81.90;;;4.52;80.40;99584.84;5001988;28;20459;-75
2023/12/15 09:10:56;;;;;;;21.87;12.50;;;5.20;81.70;;;4.49;80.67;99586.00;5024418;28;20949;-68
2023/12/15 09:13:25;;;;;;;23.00;13.83;;;5.20;81.70;;;4.59;80.57;99590.50;5023701;28;21013;-68
2023/12/15 09:15:53;;;;;;;18.57;12.33;;;5.20;81.90;;;4.67;80.11;99587.97;5021658;28;20483;-68
2023/12/15 09:18:21;;;;;;;20.70;13.20;;;5.30;82.00;;;4.79;79.68;99586.88;4999679;28;20473;-69
2023/12/15 09:20:49;;;;;;;20.80;13.13;;;5.40;81.70;;;4.95;79.72;99588.16;5018371;28;20575;-69
2023/12/15 09:23:16;;;;;;;17.97;11.40;;;5.50;81.80;;;4.81;78.86;99600.13;5024836;28;20571;-68
2023/12/15 09:25:49;;;;;;;18.20;11.13;;;5.50;81.20;;;4.65;79.55;99573.91;5004960;28;20483;-67
2023/12/15 09:28:23;;;;;;;16.60;11.27;;;5.50;81.50;;;4.95;79.35;99612.25;5017978;28;20512;-67
2023/12/15 09:30:53;;;;;;;19.67;11.43;;;5.50;81.50;;;4.87;78.66;99590.69;5019440;28;20474;-75
2023/12/15 09:33:21;;;;;;;28.20;18.87;;;5.60;81.10;;;4.66;79.14;99576.41;5023215;28;20450;-78
2023/12/15 09:35:53;;;;;;;33.47;19.80;;;5.60;81.10;;;4.66;79.69;99611.22;5021697;28;20473;-80
2023/12/15 09:38:20;;;;;;;20.93;13.90;;;5.50;81.00;;;4.31;80.17;99540.31;5008315;28;21073;-77
2023/12/15 09:40:48;;;;;;;21.07;12.20;;;5.50;81.40;;;4.76;79.74;99613.09;5019795;28;20553;-70
2023/12/15 09:43:16;;;;;;;18.87;13.00;;;5.50;81.20;;;4.84;79.44;99607.88;5003958;28;20561;-70
2023/12/15 09:45:45;;;;;;;20.50;12.73;;;5.50;81.20;;;5.05;78.29;99612.25;5002171;28;20467;-70
2023/12/15 09:48:16;;;;;;;20.60;12.60;;;5.60;81.10;;;5.05;77.77;99618.44;5006263;28;20460;-70
2023/12/15 09:50:51;;;;;;;19.43;12.40;;;5.70;80.70;;;5.16;77.80;99624.66;5025144;28;20848;-69
2023/12/15 09:53:19;;;;;;;21.80;12.60;;;5.80;80.80;;;5.06;77.83;99614.78;5025494;28;20518;-71
2023/12/15 09:55:47;;;;;;;17.87;10.37;;;5.70;80.60;;;4.88;78.49;99625.38;5002492;28;21028;-70
2023/12/15 09:58:15;;;;;;;18.00;11.30;;;5.60;80.60;;;4.89;79.42;99621.69;5017922;28;20564;-70
2023/12/15 10:00:44;;;;;;;20.13;11.70;;;5.60;80.80;;;4.86;79.04;99623.81;5021569;28;20957;-70
2023/12/15 10:03:12;;;;;;;16.93;11.00;;;5.60;80.60;;;4.83;79.39;99624.91;5020817;28;20500;-70
2023/12/15 10:05:40;;;;;;;16.53;9.83;;;5.60;80.80;;;4.91;79.85;99629.56;4998922;28;20462;-71
2023/12/15 10:08:08;;;;;;;18.47;11.60;;;5.60;81.10;;;5.09;79.22;99641.31;5022103;28;20461;-70
2023/12/15 10:10:36;;;;;;;16.93;11.37;;;5.70;81.20;;;5.32;77.95;99633.00;5020104;28;21110;-69
2023/12/15 10:13:04;;;;;;;18.23;11.70;;;5.90;80.80;;;5.13;78.24;99646.41;5022618;28;20776;-71
2023/12/15 10:15:31;;;;;;;14.60;9.83;;;5.90;80.50;;;5.01;78.83;99649.19;5017959;28;20488;-69
2023/12/15 10:17:59;;;;;;;16.33;9.90;;;5.80;80.70;;;4.95;79.04;99658.63;5013325;28;20515;-70
2023/12/15 10:20:27;;;;;;;20.30;11.67;;;5.70;80.80;;;5.02;79.01;99658.94;5020105;28;20457;-71
2023/12/15 10:23:02;;;;;;;16.77;10.03;;;5.70;80.80;;;5.11;78.77;99654.56;5020570;28;20470;-70